createdAt,value
2017-08-28T00:00:03.903Z,995.53
2017-08-28T00:01:03.939Z,995.57
2017-08-28T00:02:03.474Z,995.54
2017-08-28T00:03:03.510Z,995.57
2017-08-28T00:04:03.581Z,995.54
2017-08-28T00:05:03.536Z,995.58
2017-08-28T00:06:03.467Z,995.59
2017-08-28T00:07:03.914Z,995.64
2017-08-28T00:08:03.946Z,995.58
2017-08-28T00:09:04.287Z,995.62
2017-08-28T00:10:04.187Z,995.65
2017-08-28T00:11:04.326Z,995.68
2017-08-28T00:12:04.366Z,995.62
2017-08-28T00:13:04.308Z,995.71
2017-08-28T00:14:04.343Z,995.68
2017-08-28T00:15:03.985Z,995.67
2017-08-28T00:16:03.971Z,995.64
2017-08-28T00:17:04.013Z,995.64
2017-08-28T00:18:03.543Z,995.65
2017-08-28T00:19:03.582Z,995.71
2017-08-28T00:20:03.522Z,995.70
2017-08-28T00:21:03.584Z,995.64
2017-08-28T00:22:03.617Z,995.71
2017-08-28T00:23:03.543Z,995.68
2017-08-28T00:24:04.304Z,995.64
2017-08-28T00:25:04.343Z,995.68
2017-08-28T00:26:04.406Z,995.61
2017-08-28T00:27:04.343Z,995.72
2017-08-28T00:28:04.384Z,995.70
2017-08-28T00:29:04.529Z,995.69
2017-08-28T00:30:04.368Z,995.61
2017-08-28T00:31:04.195Z,995.60
2017-08-28T00:32:03.931Z,995.66
2017-08-28T00:33:03.969Z,995.72
2017-08-28T00:34:04.818Z,995.70
2017-08-28T00:35:03.546Z,995.75
2017-08-28T00:36:03.676Z,995.73
2017-08-28T00:37:03.605Z,995.79
2017-08-28T00:38:03.633Z,995.70
2017-08-28T00:39:03.959Z,995.71
2017-08-28T00:40:03.992Z,995.74
2017-08-28T00:41:04.145Z,995.70
2017-08-28T00:42:04.483Z,995.68
2017-08-28T00:43:04.463Z,995.68
2017-08-28T00:44:04.396Z,995.74
2017-08-28T00:45:04.431Z,995.69
2017-08-28T00:46:04.471Z,995.65
2017-08-28T00:47:04.001Z,995.63
2017-08-28T00:48:04.058Z,995.65
2017-08-28T00:49:04.007Z,995.65
2017-08-28T00:50:04.054Z,995.62
2017-08-28T00:51:03.683Z,995.66
2017-08-28T00:52:03.673Z,995.64
2017-08-28T00:53:03.601Z,995.71
2017-08-28T00:54:03.634Z,995.68
2017-08-28T00:55:04.073Z,995.70
2017-08-28T00:56:04.104Z,995.62
2017-08-28T00:57:04.446Z,995.70
2017-08-28T00:58:04.484Z,995.68
2017-08-28T00:59:04.517Z,995.75
2017-08-28T01:00:04.460Z,995.68
2017-08-28T01:03:11.568Z,995.65
2017-08-28T01:03:12.266Z,995.63
2017-08-28T01:03:12.874Z,995.65
2017-08-28T01:04:03.681Z,995.66
2017-08-28T01:08:09.025Z,995.69
2017-08-28T01:08:09.633Z,995.69
2017-08-28T01:08:10.342Z,995.59
2017-08-28T01:08:10.951Z,995.74
2017-08-28T01:09:03.758Z,995.75
2017-08-28T01:10:04.084Z,995.66
2017-08-28T01:15:07.544Z,995.71
2017-08-28T01:15:08.544Z,995.68
2017-08-28T01:15:09.153Z,995.74
2017-08-28T01:15:09.761Z,995.72
2017-08-28T01:15:10.371Z,995.76
2017-08-28T01:16:03.685Z,995.81
2017-08-28T01:21:07.933Z,995.85
2017-08-28T01:21:08.541Z,995.85
2017-08-28T01:21:09.147Z,995.79
2017-08-28T01:21:09.755Z,995.91
2017-08-28T01:21:10.363Z,995.84
2017-08-28T01:22:03.679Z,995.83
2017-08-28T01:27:09.193Z,995.84
2017-08-28T01:27:09.801Z,995.88
2017-08-28T01:27:10.410Z,995.90
2017-08-28T01:27:11.019Z,995.87
2017-08-28T01:27:11.630Z,995.78
2017-08-28T01:28:03.738Z,995.85
2017-08-28T01:33:04.475Z,995.79
2017-08-28T01:33:05.086Z,995.80
2017-08-28T01:33:05.694Z,995.81
2017-08-28T01:33:06.305Z,995.80
2017-08-28T01:33:06.912Z,995.91
2017-08-28T01:34:04.540Z,995.81
2017-08-28T01:39:13.112Z,995.84
2017-08-28T01:39:13.725Z,995.88
2017-08-28T01:39:14.327Z,995.84
2017-08-28T01:39:14.938Z,995.94
2017-08-28T01:39:15.545Z,995.94
2017-08-28T01:40:03.746Z,995.90
2017-08-28T01:44:16.486Z,995.91
2017-08-28T01:44:17.094Z,995.92
2017-08-28T01:44:17.703Z,995.92
2017-08-28T01:44:18.313Z,995.84
2017-08-28T01:45:05.314Z,995.90
2017-08-28T01:46:04.646Z,995.83
2017-08-28T01:50:21.402Z,995.81
2017-08-28T01:50:22.009Z,995.82
2017-08-28T01:50:22.618Z,995.71
2017-08-28T01:50:23.327Z,995.77
2017-08-28T01:51:03.804Z,995.77
2017-08-28T01:52:04.638Z,995.73
2017-08-28T01:57:18.069Z,995.80
2017-08-28T01:57:18.691Z,995.77
2017-08-28T01:57:19.299Z,995.76
2017-08-28T01:57:19.907Z,995.76
2017-08-28T01:57:20.516Z,995.70
2017-08-28T01:58:03.812Z,995.84
2017-08-28T02:00:46.160Z,995.79
2017-08-28T02:00:46.768Z,995.79
2017-08-28T02:01:03.809Z,995.79
2017-08-28T02:02:04.641Z,995.76
2017-08-28T02:03:04.675Z,995.82
2017-08-28T02:04:04.603Z,995.89
2017-08-28T02:05:04.638Z,995.86
2017-08-28T02:06:04.599Z,995.78
2017-08-28T02:07:04.627Z,995.83
2017-08-28T02:08:04.252Z,995.80
2017-08-28T02:09:04.287Z,995.83
2017-08-28T02:10:04.235Z,995.84
2017-08-28T02:11:04.272Z,995.87
2017-08-28T02:12:03.801Z,995.84
2017-08-28T02:13:03.831Z,995.84
2017-08-28T02:14:03.853Z,995.90
2017-08-28T02:15:03.913Z,995.87
2017-08-28T02:16:03.896Z,995.89
2017-08-28T02:17:04.631Z,995.89
2017-08-28T02:18:04.666Z,996.03
2017-08-28T02:19:04.698Z,995.97
2017-08-28T02:20:04.796Z,995.99
2017-08-28T02:21:04.785Z,995.98
2017-08-28T02:22:04.818Z,996.05
2017-08-28T02:23:04.747Z,996.05
2017-08-28T02:24:04.277Z,996.00
2017-08-28T02:25:04.317Z,996.14
2017-08-28T02:26:04.346Z,996.07
2017-08-28T02:27:03.875Z,996.08
2017-08-28T02:28:03.924Z,996.02
2017-08-28T02:29:03.859Z,996.05
2017-08-28T02:30:03.902Z,996.10
2017-08-28T02:31:03.947Z,996.04
2017-08-28T02:32:03.890Z,996.14
2017-08-28T02:33:04.364Z,996.06
2017-08-28T02:34:04.712Z,996.14
2017-08-28T02:35:04.771Z,996.11
2017-08-28T02:36:04.842Z,996.03
2017-08-28T02:37:04.776Z,996.07
2017-08-28T02:38:04.820Z,996.06
2017-08-28T02:39:04.768Z,996.06
2017-08-28T02:40:04.814Z,996.13
2017-08-28T02:41:04.347Z,996.13
2017-08-28T02:42:04.376Z,996.06
2017-08-28T02:43:04.456Z,996.06
2017-08-28T02:44:04.387Z,996.13
2017-08-28T02:45:03.916Z,996.08
2017-08-28T02:46:03.966Z,996.11
2017-08-28T02:47:03.990Z,996.10
2017-08-28T02:48:04.015Z,996.08
2017-08-28T02:49:04.362Z,996.09
2017-08-28T02:50:04.392Z,996.08
2017-08-28T02:51:04.735Z,996.12
2017-08-28T02:52:04.768Z,996.05
2017-08-28T02:53:04.809Z,996.09
2017-08-28T02:54:04.843Z,996.04
2017-08-28T02:55:04.778Z,996.00
2017-08-28T02:56:04.809Z,996.02
2017-08-28T02:57:04.838Z,996.04
2017-08-28T02:58:04.466Z,996.02
2017-08-28T02:59:04.401Z,995.94
2017-08-28T03:00:04.471Z,995.96
2017-08-28T03:01:04.034Z,995.99
2017-08-28T03:02:04.600Z,995.96
2017-08-28T03:03:03.980Z,995.95
2017-08-28T03:04:04.422Z,995.91
2017-08-28T03:05:04.486Z,995.94
2017-08-28T03:06:04.412Z,995.97
2017-08-28T03:07:04.853Z,995.95
2017-08-28T03:08:04.821Z,995.97
2017-08-28T03:09:04.871Z,993.83
2017-08-28T03:10:04.860Z,995.91
2017-08-28T03:11:04.805Z,995.95
2017-08-28T03:12:04.834Z,995.95
2017-08-28T03:13:04.869Z,995.93
2017-08-28T03:14:04.396Z,995.96
2017-08-28T03:15:04.432Z,996.05
2017-08-28T03:16:04.004Z,996.07
2017-08-28T03:17:04.044Z,996.06
2017-08-28T03:18:04.080Z,996.03
2017-08-28T03:19:04.015Z,996.05
2017-08-28T03:20:04.462Z,996.05
2017-08-28T03:21:04.494Z,996.03
2017-08-28T03:22:04.548Z,996.04
2017-08-28T03:23:04.569Z,996.04
2017-08-28T03:24:04.905Z,996.07
2017-08-28T03:25:04.895Z,996.12
2017-08-28T03:26:04.834Z,996.06
2017-08-28T03:27:04.909Z,996.05
2017-08-28T03:28:04.945Z,996.13
2017-08-28T03:29:04.886Z,996.07
2017-08-28T03:30:04.510Z,996.04
2017-08-28T03:31:04.457Z,996.11
2017-08-28T03:32:04.501Z,996.08
2017-08-28T03:33:04.560Z,996.11
2017-08-28T03:34:04.599Z,996.07
2017-08-28T03:35:04.052Z,996.04
2017-08-28T03:36:04.090Z,996.08
2017-08-28T03:37:04.220Z,996.12
2017-08-28T03:38:04.149Z,996.08
2017-08-28T03:39:04.578Z,996.06
2017-08-28T03:40:04.921Z,996.07
2017-08-28T03:40:59.823Z,996.07
2017-08-28T03:42:55.801Z,996.12
2017-08-28T03:42:56.419Z,996.09
2017-08-28T03:43:04.140Z,996.11
2017-08-28T03:44:04.970Z,996.04
2017-08-28T03:45:04.930Z,996.08
2017-08-28T03:46:04.962Z,996.12
2017-08-28T03:47:04.589Z,996.10
2017-08-28T03:48:04.525Z,996.11
2017-08-28T03:49:04.095Z,996.09
2017-08-28T03:50:04.124Z,996.09
2017-08-28T03:51:04.163Z,996.15
2017-08-28T03:52:04.190Z,996.11
2017-08-28T03:53:04.206Z,996.12
2017-08-28T03:54:04.136Z,996.10
2017-08-28T03:55:04.565Z,996.16
2017-08-28T03:56:04.594Z,996.21
2017-08-28T03:57:05.021Z,996.13
2017-08-28T03:58:05.055Z,996.16
2017-08-28T03:59:05.000Z,996.11
2017-08-28T04:00:04.938Z,996.15
2017-08-28T04:01:04.990Z,996.10
2017-08-28T04:02:05.125Z,996.15
2017-08-28T04:03:05.066Z,996.12
2017-08-28T04:04:04.570Z,996.09
2017-08-28T04:05:04.176Z,996.08
2017-08-28T04:06:04.210Z,996.21
2017-08-28T04:07:04.139Z,996.13
2017-08-28T04:08:04.184Z,996.10
2017-08-28T04:09:04.207Z,996.14
2017-08-28T04:10:04.681Z,996.14
2017-08-28T04:11:04.619Z,996.10
2017-08-28T04:12:04.658Z,996.11
2017-08-28T04:13:05.011Z,996.14
2017-08-28T04:14:05.069Z,996.14
2017-08-28T04:15:05.006Z,996.08
2017-08-28T04:16:05.028Z,996.15
2017-08-28T04:17:05.070Z,996.20
2017-08-28T04:18:04.600Z,996.23
2017-08-28T04:19:04.631Z,996.19
2017-08-28T04:20:04.657Z,996.18
2017-08-28T04:21:04.197Z,996.21
2017-08-28T04:22:04.214Z,996.19
2017-08-28T04:23:04.245Z,996.27
2017-08-28T04:24:04.283Z,996.21
2017-08-28T04:25:04.289Z,996.24
2017-08-28T04:26:04.249Z,996.26
2017-08-28T04:27:04.670Z,996.24
2017-08-28T04:28:04.713Z,996.26
2017-08-28T04:29:05.093Z,996.25
2017-08-28T04:30:05.036Z,996.24
2017-08-28T04:31:05.063Z,996.29
2017-08-28T04:32:05.020Z,996.29
2017-08-28T04:33:05.159Z,996.32
2017-08-28T04:34:05.084Z,996.37
2017-08-28T04:35:04.708Z,996.26
2017-08-28T04:36:04.631Z,996.29
2017-08-28T04:37:04.762Z,996.32
2017-08-28T04:38:04.306Z,996.29
2017-08-28T04:39:04.231Z,996.26
2017-08-28T04:40:04.263Z,996.29
2017-08-28T04:41:04.291Z,996.39
2017-08-28T04:42:04.728Z,996.30
2017-08-28T04:43:04.765Z,996.27
2017-08-28T04:44:04.804Z,996.24
2017-08-28T04:45:05.053Z,996.32
2017-08-28T04:46:05.104Z,996.28
2017-08-28T04:47:05.243Z,996.27
2017-08-28T04:48:05.202Z,996.25
2017-08-28T04:49:05.158Z,996.27
2017-08-28T04:50:05.160Z,996.26
2017-08-28T04:51:04.719Z,996.30
2017-08-28T04:52:04.683Z,996.31
2017-08-28T04:53:04.774Z,996.31
2017-08-28T04:54:04.306Z,996.28
2017-08-28T04:55:04.335Z,996.29
2017-08-28T04:56:04.359Z,996.26
2017-08-28T04:57:04.353Z,996.33
2017-08-28T04:58:04.388Z,996.28
2017-08-28T04:59:04.340Z,996.21
2017-08-28T05:00:04.732Z,996.29
2017-08-28T05:01:04.785Z,996.23
2017-08-28T05:02:05.155Z,996.24
2017-08-28T05:03:05.199Z,996.29
2017-08-28T05:04:05.162Z,996.19
2017-08-28T05:05:05.202Z,996.25
2017-08-28T05:06:05.243Z,996.24
2017-08-28T05:07:05.179Z,996.24
2017-08-28T05:08:04.785Z,996.28
2017-08-28T05:09:04.922Z,996.29
2017-08-28T05:10:04.353Z,996.30
2017-08-28T05:11:04.374Z,996.35
2017-08-28T05:12:04.946Z,996.35
2017-08-28T05:13:04.443Z,996.32
2017-08-28T05:14:04.382Z,996.33
2017-08-28T05:15:04.767Z,996.31
2017-08-28T05:16:04.819Z,996.29
2017-08-28T05:17:05.181Z,996.29
2017-08-28T05:18:05.225Z,996.31
2017-08-28T05:19:04.942Z,996.22
2017-08-28T05:20:05.186Z,996.27
2017-08-28T05:21:05.221Z,996.33
2017-08-28T05:22:05.190Z,996.34
2017-08-28T05:23:05.380Z,996.28
2017-08-28T05:24:05.285Z,996.35
2017-08-28T05:25:04.785Z,996.29
2017-08-28T05:26:04.845Z,996.32
2017-08-28T05:27:04.810Z,996.33
2017-08-28T05:28:04.985Z,996.27
2017-08-28T05:29:04.440Z,996.32
2017-08-28T05:30:04.404Z,996.26
2017-08-28T05:31:04.473Z,996.24
2017-08-28T05:32:04.420Z,996.24
2017-08-28T05:33:04.842Z,996.26
2017-08-28T05:34:04.882Z,996.25
2017-08-28T05:35:05.217Z,996.27
2017-08-28T05:36:05.352Z,996.29
2017-08-28T05:37:05.300Z,996.29
2017-08-28T05:38:05.324Z,996.29
2017-08-28T05:39:05.265Z,996.25
2017-08-28T05:40:04.999Z,996.30
2017-08-28T05:41:04.846Z,996.29
2017-08-28T05:42:04.909Z,996.27
2017-08-28T05:43:04.838Z,996.26
2017-08-28T05:44:04.979Z,996.33
2017-08-28T05:45:04.460Z,996.28
2017-08-28T05:46:04.500Z,996.32
2017-08-28T05:47:04.418Z,996.34
2017-08-28T05:48:04.871Z,996.33
2017-08-28T05:49:04.903Z,996.38
2017-08-28T05:50:04.842Z,996.38
2017-08-28T05:51:05.289Z,996.36
2017-08-28T05:52:05.372Z,996.40
2017-08-28T05:53:05.323Z,996.36
2017-08-28T05:54:05.312Z,996.36
2017-08-28T05:55:05.327Z,996.43
2017-08-28T05:56:05.306Z,996.26
2017-08-28T05:57:05.347Z,996.29
2017-08-28T05:58:04.946Z,996.29
2017-08-28T05:59:04.892Z,996.31
2017-08-28T15:27:50.900Z,994.31
2017-08-28T15:28:06.963Z,994.32
2017-08-28T15:29:06.231Z,994.39
2017-08-28T15:30:07.743Z,994.32
2017-08-28T15:31:06.690Z,994.32
2017-08-28T15:32:08.590Z,994.38
2017-08-28T15:33:07.884Z,994.36
2017-08-28T15:34:05.522Z,994.39
2017-08-28T15:35:06.889Z,994.36
2017-08-28T15:36:06.704Z,994.28
2017-08-28T15:37:07.881Z,994.29
2017-08-28T15:38:09.304Z,994.28
2017-08-28T15:39:13.239Z,994.33
2017-08-28T15:40:06.586Z,994.25
2017-08-28T16:37:28.599Z,994.18
2017-08-28T16:38:05.139Z,994.25
2017-08-28T16:39:07.275Z,994.15
2017-08-28T16:40:08.955Z,994.19
2017-08-28T16:41:07.834Z,994.21
2017-08-28T16:42:08.767Z,994.15
2017-08-28T16:43:17.893Z,994.21
2017-08-28T16:44:14.124Z,994.19
2017-08-28T16:45:07.153Z,994.20
2017-08-28T16:46:11.650Z,994.23
2017-08-28T16:47:07.345Z,994.15
2017-08-28T16:48:11.303Z,994.17
2017-08-28T16:49:06.945Z,994.26
2017-08-28T16:50:08.906Z,994.22
2017-08-28T16:51:08.227Z,994.20
2017-08-28T16:52:11.547Z,994.25
2017-08-28T16:53:08.604Z,994.19
2017-08-28T16:54:07.887Z,994.29
2017-08-28T16:55:07.278Z,994.18
2017-08-28T16:56:12.820Z,994.24
2017-08-28T16:57:07.720Z,994.23
2017-08-28T16:58:10.065Z,994.20
2017-08-28T16:59:12.210Z,994.26
2017-08-28T17:00:08.232Z,994.29
2017-08-28T17:01:10.813Z,994.21
2017-08-28T17:02:07.309Z,994.22
2017-08-28T17:03:22.510Z,994.19
2017-08-28T17:04:08.568Z,994.18
2017-08-28T17:05:08.428Z,994.15
2017-08-28T17:06:13.806Z,994.19
2017-08-28T17:07:08.832Z,994.22
2017-08-28T17:08:44.603Z,994.24
2017-08-28T17:09:07.002Z,994.27
2017-08-28T17:10:09.830Z,994.26
2017-08-28T17:11:10.212Z,994.33
2017-08-28T17:12:12.021Z,994.26
2017-08-28T17:13:06.905Z,994.19
2017-08-28T21:34:57.718Z,995.30
2017-08-28T21:35:17.578Z,995.27
2017-08-28T21:36:08.019Z,995.38
2017-08-28T21:37:08.068Z,995.31
2017-08-28T21:38:08.018Z,995.34
2017-08-28T21:39:07.985Z,995.25
2017-08-28T21:40:08.283Z,995.33
2017-08-28T21:41:08.030Z,995.31
2017-08-28T21:42:08.076Z,995.31
2017-08-28T21:43:07.622Z,995.21
2017-08-28T21:44:07.678Z,995.34
2017-08-28T21:45:07.738Z,995.26
2017-08-28T21:46:07.289Z,995.22
2017-08-28T21:47:07.249Z,995.34
2017-08-28T21:48:07.296Z,995.29
2017-08-28T21:49:07.238Z,995.24
2017-08-28T21:50:08.446Z,995.31
2017-08-28T21:51:07.505Z,995.32
2017-08-28T21:52:07.344Z,995.32
2017-08-28T21:53:07.264Z,995.32
2017-08-28T21:54:07.823Z,995.32
2017-08-28T21:55:08.182Z,995.25
2017-08-28T21:56:07.929Z,995.26
2017-08-28T21:57:08.069Z,995.36
2017-08-28T21:58:08.115Z,995.29
2017-08-28T21:59:07.667Z,995.28
2017-08-28T22:00:08.198Z,995.32
2017-08-28T22:01:07.660Z,995.29
2017-08-28T22:02:07.852Z,995.35
2017-08-28T22:03:07.943Z,995.32
2017-08-28T22:04:07.280Z,995.33
2017-08-28T22:05:07.945Z,995.32
2017-08-28T22:06:07.405Z,995.32
2017-08-28T22:07:07.263Z,995.28
2017-08-28T22:08:07.772Z,995.27
2017-08-28T22:09:07.744Z,995.29
2017-08-28T22:10:08.202Z,995.26
2017-08-28T22:11:08.224Z,995.30
2017-08-28T22:12:08.267Z,995.24
2017-08-28T22:13:08.114Z,995.28
2017-08-28T22:14:08.460Z,995.24
2017-08-28T22:15:08.314Z,995.23
2017-08-28T22:16:07.653Z,995.26
2017-08-28T22:17:07.696Z,995.29
2017-08-28T22:18:07.797Z,995.19
2017-08-28T22:19:07.354Z,995.26
2017-08-28T22:20:08.092Z,995.22
2017-08-28T22:21:07.480Z,995.23
2017-08-28T22:22:07.343Z,995.22
2017-08-28T22:23:07.797Z,995.21
2017-08-28T22:24:07.732Z,995.18
2017-08-28T22:25:07.883Z,995.19
2017-08-28T22:26:07.834Z,995.22
2017-08-28T22:27:08.422Z,995.25
2017-08-28T22:28:08.171Z,995.24
2017-08-28T22:29:08.226Z,995.17
2017-08-28T22:30:08.203Z,995.21
2017-08-28T22:31:08.246Z,995.18
2017-08-28T22:32:08.210Z,995.15
2017-08-28T22:33:07.753Z,995.12
2017-08-28T22:34:07.828Z,995.11
2017-08-28T22:35:08.079Z,995.14
2017-08-28T22:36:07.327Z,995.14
2017-08-28T22:37:07.389Z,995.15
2017-08-28T22:38:07.426Z,995.13
2017-08-28T22:39:07.475Z,995.18
2017-08-28T22:40:07.517Z,995.14
2017-08-28T22:41:07.480Z,995.17
2017-08-28T22:42:07.835Z,995.17
2017-08-28T22:43:07.885Z,995.25
2017-08-28T22:44:07.965Z,995.19
2017-08-28T22:45:08.374Z,995.18
2017-08-28T22:46:08.440Z,995.15
2017-08-28T22:47:08.236Z,995.17
2017-08-28T22:48:08.222Z,995.16
2017-08-28T22:49:08.382Z,995.15
2017-08-28T22:50:07.965Z,995.21
2017-08-28T22:51:07.819Z,995.16
2017-08-28T22:52:07.873Z,995.12
2017-08-28T22:53:07.405Z,995.17
2017-08-28T22:54:07.465Z,995.14
2017-08-28T22:55:08.038Z,995.06
2017-08-28T22:56:07.482Z,995.06
2017-08-28T22:57:07.535Z,995.05
2017-08-28T22:58:07.488Z,995.11
2017-08-28T22:59:08.233Z,995.13
2017-08-28T23:00:08.053Z,995.18
2017-08-28T23:01:08.302Z,995.04
2017-08-28T23:02:08.388Z,995.20
2017-08-28T23:03:08.353Z,995.12
2017-08-28T23:04:08.220Z,995.16
2017-08-28T23:05:08.371Z,995.13
2017-08-28T23:06:08.327Z,995.10
2017-08-28T23:07:08.061Z,995.08
2017-08-28T23:08:07.961Z,995.10
2017-08-28T23:09:08.078Z,995.10
2017-08-28T23:10:08.161Z,995.09
2017-08-28T23:11:07.492Z,995.09
2017-08-28T23:12:07.512Z,995.09
2017-08-28T23:13:07.609Z,995.10
2017-08-28T23:14:07.551Z,995.07
2017-08-28T23:15:08.018Z,995.08
2017-08-28T23:16:08.270Z,995.01
2017-08-28T23:17:08.314Z,995.03
2017-08-28T23:18:08.406Z,994.99
2017-08-28T23:19:08.255Z,995.02
2017-08-28T23:20:08.366Z,995.04
2017-08-28T23:21:08.319Z,995.03
2017-08-28T23:22:08.373Z,994.99
2017-08-28T23:23:07.920Z,995.00
2017-08-28T23:24:08.029Z,995.05
2017-08-28T23:25:07.996Z,994.98
2017-08-28T23:26:07.533Z,994.98
2017-08-28T23:27:07.554Z,994.94
2017-08-28T23:28:07.633Z,994.96
2017-08-28T23:29:07.583Z,994.90
2017-08-28T23:30:07.668Z,994.92
2017-08-28T23:31:07.507Z,994.88
2017-08-28T23:32:07.946Z,994.92
2017-08-28T23:33:08.289Z,994.83
2017-08-28T23:34:08.431Z,994.83
2017-08-28T23:35:08.482Z,994.86
2017-08-28T23:36:08.367Z,994.86
2017-08-28T23:37:08.405Z,994.87
2017-08-28T23:38:08.341Z,994.88
2017-08-28T23:39:08.386Z,994.94
2017-08-28T23:40:08.433Z,994.90
2017-08-28T23:41:08.091Z,994.97
2017-08-28T23:42:08.059Z,994.75
2017-08-28T23:43:08.086Z,994.89
2017-08-28T23:44:08.727Z,994.91
2017-08-28T23:45:09.055Z,994.89
2017-08-28T23:46:08.389Z,994.89
2017-08-28T23:47:07.629Z,994.96
2017-08-28T23:48:08.069Z,994.94
2017-08-28T23:49:08.010Z,994.97
2017-08-28T23:50:08.043Z,994.92
2017-08-28T23:51:08.460Z,994.88
2017-08-28T23:52:08.411Z,994.91
2017-08-28T23:53:08.460Z,994.82
2017-08-28T23:54:08.595Z,994.91
2017-08-28T23:55:08.438Z,994.83
2017-08-28T23:56:07.974Z,994.89
2017-08-28T23:57:08.020Z,994.79
2017-08-28T23:58:08.071Z,994.91
2017-08-28T23:59:09.313Z,994.81
